Time;durP1;ratioP1;P1;durP2;ratioP2;P2;SDS_P1;SDS_P2;PMS_P1;PMS_P2;Temp;Humidity;BMP_temperature;BMP_pressure;BME280_temperature;BME280_humidity;BME280_pressure;Samples;Min_cycle;Max_cycle;Signal;HPM_P1;HPM_P2
2022/10/22 00:02:21;;;;;;;2.13;0.88;;;;;;;11.31;nan;93773.59;4932855;29;20050;-61
2022/10/22 00:04:49;;;;;;;2.43;0.80;;;;;;;11.23;nan;93779.63;4916399;29;20047;-61
2022/10/22 00:07:17;;;;;;;2.50;0.70;;;;;;;11.16;nan;93770.34;4932739;29;20390;-61
2022/10/22 00:09:44;;;;;;;3.63;1.50;;;;;;;11.16;nan;93758.59;4932861;29;20036;-61
2022/10/22 00:12:13;;;;;;;2.10;0.95;;;;;;;10.81;nan;93732.63;4932732;29;20065;-60
2022/10/22 00:14:41;;;;;;;2.10;0.88;;;;;;;10.75;nan;93724.09;4932898;29;20050;-61
2022/10/22 00:17:07;;;;;;;1.70;0.70;;;;;;;10.96;nan;93723.66;4933033;29;20424;-60
2022/10/22 00:19:38;;;;;;;2.78;0.77;;;;;;;10.96;nan;93711.91;4932244;29;20883;-61
2022/10/22 00:22:05;;;;;;;2.85;1.00;;;;;;;10.87;nan;93704.25;4932982;29;20054;-61
2022/10/22 00:24:33;;;;;;;1.88;0.70;;;;;;;10.67;nan;93711.72;4932375;29;20039;-61
2022/10/22 00:27:00;;;;;;;2.97;0.70;;;;;;;10.90;nan;93730.84;4932747;29;20040;-62
2022/10/22 00:29:27;;;;;;;2.60;0.97;;;;;;;10.82;nan;93739.66;4932559;29;20693;-62
2022/10/22 00:31:55;;;;;;;2.50;1.70;;;;;;;10.69;nan;93759.47;4923100;29;20560;-62
2022/10/22 00:34:27;;;;;;;3.90;1.80;;;;;;;10.82;nan;93756.88;4915676;29;20052;-62
2022/10/22 00:36:54;;;;;;;2.85;0.85;;;;;;;10.89;nan;93775.97;4932933;29;20548;-63
2022/10/22 00:39:23;;;;;;;1.80;0.75;;;;;;;10.87;nan;93780.34;4934859;29;20040;-62
2022/10/22 00:41:52;;;;;;;2.53;0.60;;;;;;;10.88;nan;93792.88;4936894;29;20036;-62
2022/10/22 00:44:56;;;;;;;17.73;10.93;;;;;;;10.93;nan;93800.63;4936269;29;20044;-62
2022/10/22 00:47:26;;;;;;;4.45;1.80;;;;;;;10.77;nan;93809.53;4936297;29;20054;-62
2022/10/22 00:49:54;;;;;;;2.50;0.75;;;;;;;10.77;nan;93804.06;4936662;29;20051;-62
2022/10/22 00:52:21;;;;;;;3.13;0.82;;;;;;;10.69;nan;93788.91;4935902;29;20066;-63
2022/10/22 00:54:49;;;;;;;3.40;0.80;;;;;;;10.54;nan;93791.91;4936520;29;20056;-62
2022/10/22 00:57:18;;;;;;;3.95;1.40;;;;;;;10.66;nan;93795.22;4935931;29;20060;-62
2022/10/22 00:59:46;;;;;;;3.58;1.00;;;;;;;10.64;nan;93798.38;4936705;29;20047;-63
2022/10/22 01:02:13;;;;;;;2.80;1.40;;;;;;;10.72;nan;93805.28;4918775;29;20449;-62
2022/10/22 01:04:40;;;;;;;4.65;2.80;;;;;;;10.69;nan;93824.59;4936408;29;20043;-62
2022/10/22 01:07:15;;;;;;;3.33;1.50;;;;;;;10.76;nan;93832.69;4936387;29;20054;-61
2022/10/22 01:09:46;;;;;;;4.22;1.20;;;;;;;10.71;nan;93836.69;4935393;29;20377;-62
2022/10/22 01:12:31;;;;;;;11.30;6.90;;;;;;;10.61;nan;93843.13;4935975;29;20051;-61
2022/10/22 01:15:22;;;;;;;8.30;5.35;;;;;;;10.69;nan;93841.81;4936315;29;20050;-62
2022/10/22 01:18:00;;;;;;;5.40;3.15;;;;;;;10.73;nan;93839.03;4934967;29;20780;-63
2022/10/22 01:20:58;;;;;;;5.37;2.67;;;;;;;10.75;nan;93848.38;4935787;29;20052;-63
2022/10/22 01:23:44;;;;;;;2.70;1.00;;;;;;;10.54;nan;93848.72;4930259;29;20043;-62
2022/10/22 01:26:19;;;;;;;3.88;0.90;;;;;;;10.43;nan;93834.41;4935658;29;20047;-62
2022/10/22 01:29:21;;;;;;;2.40;0.88;;;;;;;10.42;nan;93835.59;4936015;29;20047;-61
2022/10/22 01:31:56;;;;;;;3.10;1.15;;;;;;;10.40;nan;93833.25;4924583;29;21160;-64
2022/10/22 01:34:24;;;;;;;3.57;0.97;;;;;;;10.38;nan;93817.25;4916622;29;20087;-61
2022/10/22 01:36:53;;;;;;;3.20;1.00;;;;;;;10.30;nan;93815.81;4934914;29;20046;-63
2022/10/22 01:39:22;;;;;;;3.13;1.05;;;;;;;10.36;nan;93814.16;4935277;29;20050;-62
2022/10/22 01:41:48;;;;;;;3.20;1.08;;;;;;;10.50;nan;93799.41;4935597;29;20044;-62
2022/10/22 01:44:33;;;;;;;2.50;0.90;;;;;;;10.46;nan;93795.16;4935353;29;20048;-61
2022/10/22 01:47:14;;;;;;;2.33;0.90;;;;;;;10.53;nan;93789.56;4919973;29;20039;-62
2022/10/22 01:49:44;;;;;;;3.90;0.90;;;;;;;10.49;nan;93780.63;4933750;29;21574;-62
2022/10/22 01:52:32;;;;;;;2.88;1.00;;;;;;;10.44;nan;93776.38;4934717;29;20058;-61
2022/10/22 01:55:15;;;;;;;2.70;0.80;;;;;;;10.44;nan;93773.63;4935597;29;20043;-62
2022/10/22 01:57:59;;;;;;;3.05;0.77;;;;;;;10.41;nan;93777.22;4934538;29;20655;-62
2022/10/22 02:00:26;;;;;;;2.20;0.93;;;;;;;10.29;nan;93781.31;4934909;29;20175;-62
2022/10/22 02:03:07;;;;;;;2.70;1.02;;;;;;;10.34;nan;93780.06;4935497;29;20040;-62
2022/10/22 02:05:48;;;;;;;2.55;0.90;;;;;;;10.29;nan;93767.59;4934915;29;20040;-61
2022/10/22 02:08:20;;;;;;;2.92;1.00;;;;;;;10.33;nan;93778.53;4934807;29;20050;-63
2022/10/22 02:10:49;;;;;;;3.28;1.65;;;;;;;10.39;nan;93779.59;4935069;29;20050;-62
2022/10/22 02:13:25;;;;;;;2.83;1.10;;;;;;;10.47;nan;93780.28;4917867;29;20110;-60
2022/10/22 02:15:53;;;;;;;3.47;0.80;;;;;;;10.55;nan;93774.22;4935235;29;20037;-61
2022/10/22 02:18:25;;;;;;;2.58;0.90;;;;;;;10.50;nan;93785.69;4934435;29;20052;-60
2022/10/22 02:20:52;;;;;;;3.22;1.02;;;;;;;10.56;nan;93784.03;4935000;29;20069;-62
2022/10/22 02:23:20;;;;;;;3.05;0.82;;;;;;;10.62;nan;93784.28;4934257;29;20047;-62
2022/10/22 02:25:55;;;;;;;2.70;0.60;;;;;;;10.65;nan;93801.91;4935093;29;20539;-61
2022/10/22 02:28:50;;;;;;;2.60;0.80;;;;;;;10.69;nan;93805.38;4934367;29;20048;-62
2022/10/22 02:31:25;;;;;;;2.22;1.00;;;;;;;10.64;nan;93819.56;4906477;29;20040;-61
2022/10/22 02:33:55;;;;;;;2.10;0.90;;;;;;;10.56;nan;93822.44;4916409;29;20087;-61
2022/10/22 02:36:23;;;;;;;2.45;0.90;;;;;;;10.56;nan;93835.38;4929614;29;20048;-62
2022/10/22 02:38:50;;;;;;;2.67;0.90;;;;;;;10.52;nan;93835.44;4934698;29;20039;-61
2022/10/22 02:41:19;;;;;;;3.08;0.90;;;;;;;10.65;nan;93851.31;4934112;29;20057;-61
2022/10/22 02:43:52;;;;;;;2.78;1.30;;;;;;;10.60;nan;93852.53;4934596;29;20062;-60
2022/10/22 02:46:20;;;;;;;3.10;1.13;;;;;;;10.32;nan;93854.56;4934213;29;20066;-61
2022/10/22 02:48:47;;;;;;;4.35;0.93;;;;;;;10.25;nan;93853.88;4934478;29;20762;-61
2022/10/22 02:51:13;;;;;;;3.90;1.10;;;;;;;10.12;nan;93856.38;4933925;29;20408;-60
2022/10/22 02:53:40;;;;;;;4.45;1.15;;;;;;;9.96;nan;93857.81;4934058;29;20048;-60
2022/10/22 02:56:08;;;;;;;3.17;1.13;;;;;;;10.20;nan;93866.06;4934546;29;20046;-60
2022/10/22 02:58:35;;;;;;;2.42;1.00;;;;;;;10.38;nan;93869.38;4933674;29;20069;-60
2022/10/22 03:01:02;;;;;;;3.50;1.30;;;;;;;10.49;nan;93863.72;4933769;29;20048;-61
2022/10/22 03:03:29;;;;;;;4.40;1.10;;;;;;;10.61;nan;93867.84;4933564;29;20043;-60
2022/10/22 03:05:55;;;;;;;2.47;1.00;;;;;;;10.63;nan;93873.69;4934268;29;20722;-60
2022/10/22 03:08:22;;;;;;;3.38;1.20;;;;;;;10.42;nan;93857.56;4916685;29;20057;-60
2022/10/22 03:10:49;;;;;;;2.38;1.20;;;;;;;10.39;nan;93857.19;4933911;29;20047;-60
2022/10/22 03:13:15;;;;;;;2.67;1.17;;;;;;;10.64;nan;93869.72;4916565;29;20102;-61
2022/10/22 03:15:42;;;;;;;3.80;1.10;;;;;;;10.74;nan;93873.50;4933986;29;20050;-61
2022/10/22 03:18:09;;;;;;;2.60;1.05;;;;;;;10.70;nan;93873.53;4933848;29;20047;-61
2022/10/22 03:20:36;;;;;;;2.55;1.10;;;;;;;10.56;nan;93866.34;4933178;29;21552;-61
2022/10/22 03:23:02;;;;;;;3.38;1.08;;;;;;;10.54;nan;93873.41;4933845;29;20493;-61
2022/10/22 03:25:33;;;;;;;2.42;1.15;;;;;;;10.55;nan;93873.00;4933425;29;20039;-61
2022/10/22 03:28:07;;;;;;;4.00;1.47;;;;;;;10.69;nan;93855.53;4933707;29;20046;-60
2022/10/22 03:30:34;;;;;;;3.00;1.27;;;;;;;10.60;nan;93858.03;4932139;29;20538;-64
2022/10/22 03:33:01;;;;;;;3.78;1.20;;;;;;;10.56;nan;93846.34;4899366;29;20054;-61
2022/10/22 03:35:27;;;;;;;2.45;1.00;;;;;;;10.55;nan;93839.31;4922537;29;20051;-61
2022/10/22 03:37:54;;;;;;;2.17;1.00;;;;;;;10.47;nan;93851.59;4933705;29;20048;-60
2022/10/22 03:40:21;;;;;;;2.50;1.20;;;;;;;10.33;nan;93850.63;4932969;29;20058;-61
2022/10/22 03:42:48;;;;;;;2.28;1.10;;;;;;;10.42;nan;93852.81;4933304;29;20061;-62
2022/10/22 03:45:15;;;;;;;3.00;0.90;;;;;;;10.43;nan;93853.63;4933192;29;20524;-61
2022/10/22 03:47:42;;;;;;;3.25;0.88;;;;;;;10.53;nan;93856.19;4933441;29;20039;-61
2022/10/22 03:50:09;;;;;;;3.00;1.13;;;;;;;10.53;nan;93850.69;4933417;29;20044;-61
2022/10/22 03:52:38;;;;;;;2.20;0.80;;;;;;;10.51;nan;93844.84;4932376;29;20654;-60
2022/10/22 03:55:06;;;;;;;1.92;0.70;;;;;;;10.68;nan;93832.03;4933327;29;20515;-60
2022/10/22 03:57:33;;;;;;;2.70;1.13;;;;;;;10.64;nan;93838.78;4915979;29;20040;-61
2022/10/22 04:00:00;;;;;;;3.42;0.82;;;;;;;10.54;nan;93835.81;4933468;29;20036;-61
2022/10/22 04:02:26;;;;;;;3.35;1.10;;;;;;;10.60;nan;93836.09;4932730;29;20043;-61
2022/10/22 04:04:53;;;;;;;3.20;1.20;;;;;;;10.51;nan;93838.59;4933478;29;20681;-60
2022/10/22 04:07:20;;;;;;;4.25;1.95;;;;;;;10.48;nan;93831.97;4932877;29;20039;-61
2022/10/22 04:09:46;;;;;;;4.22;1.48;;;;;;;10.57;nan;93831.44;4933270;29;20056;-61
2022/10/22 04:12:13;;;;;;;2.50;1.13;;;;;;;10.61;nan;93829.41;4932505;29;20060;-60
2022/10/22 04:14:40;;;;;;;2.40;1.02;;;;;;;10.58;nan;93841.22;4932769;29;20062;-61
2022/10/22 04:17:07;;;;;;;4.47;1.30;;;;;;;10.61;nan;93843.13;4932747;29;20052;-62
2022/10/22 04:19:34;;;;;;;5.00;1.42;;;;;;;10.71;nan;93838.66;4932885;29;20392;-61
2022/10/22 04:22:01;;;;;;;3.25;1.58;;;;;;;10.65;nan;93843.09;4932885;29;20050;-62
2022/10/22 04:24:30;;;;;;;4.03;2.00;;;;;;;10.67;nan;93848.94;4932676;29;20060;-61
2022/10/22 04:26:57;;;;;;;5.68;2.20;;;;;;;10.70;nan;93843.34;4933138;29;20120;-62
2022/10/22 04:29:24;;;;;;;4.17;2.20;;;;;;;10.68;nan;93844.97;4932338;29;20058;-61
2022/10/22 04:31:51;;;;;;;3.88;2.00;;;;;;;10.77;nan;93837.75;4932751;29;20058;-61
2022/10/22 04:34:18;;;;;;;4.63;2.17;;;;;;;10.70;nan;93843.34;4932552;29;20051;-61
2022/10/22 04:36:45;;;;;;;4.22;2.13;;;;;;;10.71;nan;93839.44;4932895;29;20052;-61
2022/10/22 04:39:12;;;;;;;3.60;2.00;;;;;;;10.65;nan;93838.38;4932319;29;20489;-61
2022/10/22 04:41:38;;;;;;;3.83;2.10;;;;;;;10.53;nan;93839.72;4932853;29;20039;-61
2022/10/22 04:44:06;;;;;;;5.43;2.47;;;;;;;10.54;nan;93835.00;4932775;29;20062;-61
2022/10/22 04:46:36;;;;;;;6.15;2.28;;;;;;;10.55;nan;93831.09;4932038;29;20746;-61
2022/10/22 04:49:03;;;;;;;4.35;2.30;;;;;;;10.57;nan;93845.16;4932779;29;20050;-61
2022/10/22 04:51:31;;;;;;;8.32;4.30;;;;;;;10.56;nan;93840.84;4932079;29;20047;-61
2022/10/22 04:53:58;;;;;;;5.33;2.57;;;;;;;10.55;nan;93842.06;4932680;29;20048;-61
2022/10/22 04:56:27;;;;;;;4.15;2.50;;;;;;;10.51;nan;93844.09;4932130;29;20052;-62
2022/10/22 04:59:00;;;;;;;4.88;2.45;;;;;;;10.46;nan;93844.56;4932803;29;20039;-61
2022/10/22 05:01:36;;;;;;;6.68;2.80;;;;;;;10.42;nan;93847.34;4932277;29;20409;-62
2022/10/22 05:04:10;;;;;;;6.25;2.80;;;;;;;10.48;nan;93850.41;4932917;29;20412;-61
2022/10/22 05:06:37;;;;;;;8.43;3.80;;;;;;;10.49;nan;93851.97;4931681;29;20846;-61
2022/10/22 05:09:07;;;;;;;34.60;19.23;;;;;;;10.46;nan;93852.78;4932581;29;20078;-61
2022/10/22 05:11:36;;;;;;;9.80;5.88;;;;;;;10.45;nan;93849.28;4915199;29;20047;-61
2022/10/22 05:14:06;;;;;;;5.93;3.15;;;;;;;10.50;nan;93850.75;4932717;29;20050;-62
2022/10/22 05:16:34;;;;;;;6.85;4.57;;;;;;;10.47;nan;93851.59;4931889;29;20052;-60
2022/10/22 05:19:01;;;;;;;8.27;4.40;;;;;;;10.47;nan;93857.84;4932664;29;20047;-61
2022/10/22 05:21:27;;;;;;;7.13;4.32;;;;;;;10.43;nan;93853.63;4915115;29;20048;-62
2022/10/22 05:23:55;;;;;;;6.45;3.45;;;;;;;10.42;nan;93849.31;4915788;29;20032;-61
2022/10/22 05:26:23;;;;;;;10.00;3.80;;;;;;;10.39;nan;93853.69;4935549;29;20077;-61
2022/10/22 05:28:50;;;;;;;9.43;4.30;;;;;;;10.43;nan;93848.13;4919226;29;20040;-62
2022/10/22 05:31:18;;;;;;;7.77;3.93;;;;;;;10.41;nan;93859.53;4935451;29;20546;-62
2022/10/22 05:33:45;;;;;;;7.85;2.83;;;;;;;10.39;nan;93867.41;4936004;29;20054;-61
2022/10/22 05:36:15;;;;;;;6.00;2.97;;;;;;;10.48;nan;93872.34;4935090;29;20493;-61
2022/10/22 05:38:42;;;;;;;7.32;3.60;;;;;;;10.52;nan;93886.78;4935677;29;20044;-61
2022/10/22 05:41:11;;;;;;;6.65;3.65;;;;;;;10.51;nan;93877.78;4935593;29;20062;-61
2022/10/22 05:43:39;;;;;;;6.77;3.70;;;;;;;10.52;nan;93881.28;4934880;29;20643;-61
2022/10/22 05:46:08;;;;;;;7.18;3.40;;;;;;;10.59;nan;93883.94;4935607;29;20054;-61
2022/10/22 05:48:35;;;;;;;8.60;4.20;;;;;;;10.54;nan;93882.44;4935025;29;20039;-61
2022/10/22 05:51:04;;;;;;;10.77;4.18;;;;;;;10.56;nan;93893.78;4935470;29;20046;-61
2022/10/22 05:53:32;;;;;;;7.78;4.45;;;;;;;10.57;nan;93895.31;4934552;29;20048;-61
2022/10/22 05:56:04;;;;;;;10.60;4.40;;;;;;;10.57;nan;93900.81;4935622;29;20054;-61
2022/10/22 05:58:32;;;;;;;9.32;4.60;;;;;;;10.61;nan;93900.00;4935037;29;20052;-61
2022/10/22 06:01:08;;;;;;;7.47;4.07;;;;;;;10.58;nan;93898.84;4928684;29;20051;-61
2022/10/22 06:03:35;;;;;;;8.63;3.28;;;;;;;10.64;nan;93899.16;4915967;29;20052;-61
2022/10/22 06:06:06;;;;;;;7.00;4.10;;;;;;;10.63;nan;93906.63;4931311;29;20035;-62
2022/10/22 06:08:33;;;;;;;6.00;3.10;;;;;;;10.55;nan;93911.44;4934607;29;20050;-62
2022/10/22 06:11:00;;;;;;;7.25;3.55;;;;;;;10.61;nan;93922.72;4918282;29;20060;-61
2022/10/22 06:13:26;;;;;;;7.05;3.72;;;;;;;10.58;nan;93940.78;4934614;29;20051;-61
2022/10/22 06:15:53;;;;;;;7.55;3.30;;;;;;;10.55;nan;93922.41;4935065;29;20186;-63
2022/10/22 06:18:20;;;;;;;6.57;3.13;;;;;;;10.54;nan;93923.63;4934506;29;20052;-62
2022/10/22 06:20:47;;;;;;;6.13;3.50;;;;;;;10.61;nan;93932.94;4935183;29;20567;-63
2022/10/22 06:23:14;;;;;;;7.03;3.25;;;;;;;10.63;nan;93931.31;4934351;29;20060;-62
2022/10/22 06:25:42;;;;;;;6.80;3.50;;;;;;;10.70;nan;93938.66;4934819;29;20042;-62
2022/10/22 06:28:09;;;;;;;7.63;3.60;;;;;;;10.72;nan;93936.25;4934567;29;20062;-62
2022/10/22 06:30:37;;;;;;;9.68;4.07;;;;;;;10.75;nan;93943.69;4934280;29;20054;-63
2022/10/22 06:33:07;;;;;;;6.27;3.00;;;;;;;10.72;nan;93947.25;4934772;29;20060;-61
2022/10/22 06:35:34;;;;;;;6.82;3.45;;;;;;;10.65;nan;93955.59;4933967;29;20050;-63
2022/10/22 06:38:01;;;;;;;7.20;3.55;;;;;;;10.70;nan;93960.59;4934666;29;20052;-62
2022/10/22 06:40:27;;;;;;;8.25;4.22;;;;;;;10.62;nan;93959.94;4934278;29;20040;-62
2022/10/22 06:42:54;;;;;;;7.88;4.15;;;;;;;10.65;nan;93958.34;4917594;29;20055;-63
2022/10/22 06:45:21;;;;;;;8.57;3.40;;;;;;;10.62;nan;93959.94;4917081;29;20055;-62
2022/10/22 06:47:48;;;;;;;7.82;3.28;;;;;;;10.59;nan;93958.81;4934349;29;20058;-62
2022/10/22 06:50:15;;;;;;;7.28;3.30;;;;;;;10.64;nan;93954.81;4917168;29;20035;-62
2022/10/22 06:52:41;;;;;;;7.72;3.60;;;;;;;10.62;nan;93957.19;4934035;29;20055;-62
2022/10/22 06:55:09;;;;;;;9.25;3.75;;;;;;;10.66;nan;93951.66;4934294;29;20046;-63
2022/10/22 06:57:36;;;;;;;6.83;3.30;;;;;;;10.65;nan;93956.38;4933883;29;20039;-62
2022/10/22 07:00:06;;;;;;;7.35;3.50;;;;;;;10.71;nan;93967.66;4934042;29;20054;-61
2022/10/22 07:02:33;;;;;;;8.55;4.57;;;;;;;10.76;nan;93969.94;4914871;29;20048;-63
2022/10/22 07:04:59;;;;;;;10.18;5.10;;;;;;;10.85;nan;93969.41;4921563;29;20404;-62
2022/10/22 07:07:26;;;;;;;10.57;4.50;;;;;;;10.84;nan;93974.09;4933576;29;20051;-62
2022/10/22 07:09:53;;;;;;;8.53;3.77;;;;;;;10.86;nan;93976.44;4933718;29;20123;-62
2022/10/22 07:12:20;;;;;;;8.90;4.20;;;;;;;10.92;nan;93983.03;4933739;29;20048;-62
2022/10/22 07:14:48;;;;;;;11.70;6.30;;;;;;;11.03;nan;93994.63;4933886;29;20036;-62
2022/10/22 07:17:14;;;;;;;11.80;4.55;;;;;;;10.97;nan;93994.31;4933404;29;20119;-62
2022/10/22 07:19:41;;;;;;;13.07;4.70;;;;;;;10.93;nan;93996.34;4933765;29;20489;-62
2022/10/22 07:22:08;;;;;;;11.20;5.37;;;;;;;11.00;nan;93995.44;4933840;29;20091;-62
2022/10/22 07:24:35;;;;;;;11.00;5.30;;;;;;;10.94;nan;93991.63;4933230;29;20074;-62
2022/10/22 07:27:01;;;;;;;10.20;4.97;;;;;;;11.06;nan;93996.53;4933762;29;20048;-62
2022/10/22 07:29:30;;;;;;;10.45;4.53;;;;;;;11.04;nan;94001.66;4933221;29;20050;-63
2022/10/22 07:31:56;;;;;;;10.52;4.65;;;;;;;11.07;nan;94000.06;4933460;29;20060;-62
2022/10/22 07:34:23;;;;;;;11.13;4.60;;;;;;;11.08;nan;94005.13;4933370;29;20051;-62
2022/10/22 07:36:50;;;;;;;10.32;4.63;;;;;;;11.13;nan;94009.38;4933548;29;20050;-62
2022/10/22 07:39:17;;;;;;;10.43;4.80;;;;;;;11.16;nan;94011.28;4933355;29;20047;-62
2022/10/22 07:41:43;;;;;;;10.48;4.38;;;;;;;11.15;nan;94016.00;4933492;29;20047;-63
2022/10/22 07:44:10;;;;;;;9.52;4.63;;;;;;;11.25;nan;94013.50;4933557;29;20541;-62
2022/10/22 07:46:37;;;;;;;10.97;5.40;;;;;;;11.39;nan;94013.28;4916062;29;20040;-61
2022/10/22 07:49:04;;;;;;;10.95;4.50;;;;;;;11.56;nan;94017.69;4933371;29;20050;-62
2022/10/22 07:51:30;;;;;;;11.65;5.00;;;;;;;11.64;nan;94006.56;4932410;29;20048;-63
2022/10/22 07:53:57;;;;;;;10.98;4.93;;;;;;;11.87;nan;94014.78;4932994;29;20039;-62
2022/10/22 07:56:24;;;;;;;9.05;4.75;;;;;;;11.83;nan;94013.28;4932856;29;20044;-63
2022/10/22 07:58:51;;;;;;;9.07;4.70;;;;;;;12.10;nan;94013.97;4933483;29;20047;-62
2022/10/22 08:01:17;;;;;;;8.52;4.35;;;;;;;11.96;nan;94008.75;4922648;29;20405;-62
2022/10/22 08:03:44;;;;;;;9.00;4.32;;;;;;;12.12;nan;94019.81;4914160;29;20056;-62
2022/10/22 08:06:13;;;;;;;9.15;5.07;;;;;;;11.87;nan;94020.28;4929561;29;20048;-62
2022/10/22 08:08:42;;;;;;;8.63;4.68;;;;;;;11.87;nan;94014.00;4933010;29;20067;-62
2022/10/22 08:11:09;;;;;;;9.23;4.67;;;;;;;11.93;nan;94020.59;4932909;29;20040;-64
2022/10/22 08:13:36;;;;;;;8.60;4.53;;;;;;;12.17;nan;94026.81;4932729;29;20040;-63
2022/10/22 08:16:06;;;;;;;10.05;5.72;;;;;;;12.30;nan;94019.47;4932867;29;20044;-63
2022/10/22 08:18:32;;;;;;;6.43;3.80;;;;;;;12.53;nan;94023.34;4932333;29;20070;-62
2022/10/22 08:20:59;;;;;;;6.63;3.45;;;;;;;12.86;nan;94026.16;4932956;29;20052;-62
2022/10/22 08:23:27;;;;;;;5.57;2.90;;;;;;;12.99;nan;94022.31;4932720;29;20054;-63
2022/10/22 08:25:56;;;;;;;5.80;3.30;;;;;;;13.09;nan;94026.03;4931858;29;20054;-61
2022/10/22 08:28:23;;;;;;;5.75;3.55;;;;;;;13.32;nan;94027.09;4944791;28;20053;-61
2022/10/22 08:30:49;;;;;;;6.65;2.97;;;;;;;13.28;nan;94035.44;4951201;28;20069;-61
2022/10/22 08:33:16;;;;;;;6.15;3.30;;;;;;;13.22;nan;94026.13;4940893;28;20047;-61
2022/10/22 08:35:48;;;;;;;6.03;3.30;;;;;;;13.46;nan;94024.03;4950768;28;20047;-62
2022/10/22 08:38:15;;;;;;;4.40;2.75;;;;;;;14.23;nan;94024.38;4932299;29;20044;-62
2022/10/22 08:40:45;;;;;;;4.72;2.67;;;;;;;13.75;nan;94034.31;4932528;29;20040;-62
2022/10/22 08:43:46;;;;;;;6.13;2.50;;;;;;;13.30;nan;94030.31;4932352;29;20051;-63
2022/10/22 08:46:26;;;;;;;5.07;3.03;;;;;;;13.27;nan;94042.16;4932390;29;20044;-63
2022/10/22 08:48:55;;;;;;;5.60;2.93;;;;;;;13.02;nan;94030.91;4932534;29;20043;-62
2022/10/22 08:51:24;;;;;;;5.18;2.65;;;;;;;13.30;nan;94035.81;4932073;29;20048;-63
2022/10/22 08:54:11;;;;;;;5.53;2.47;;;;;;;13.35;nan;94038.03;4932386;29;20040;-62
2022/10/22 08:56:43;;;;;;;4.25;2.50;;;;;;;13.71;nan;94037.16;4931444;29;22169;-63
2022/10/22 08:59:16;;;;;;;5.10;2.58;;;;;;;13.75;nan;94031.56;4933463;29;20052;-63
2022/10/22 09:01:50;;;;;;;5.13;2.40;;;;;;;13.96;nan;94033.78;4935468;29;20861;-63
2022/10/22 09:04:40;;;;;;;4.32;2.53;;;;;;;14.42;nan;94033.72;4935651;29;20055;-63
2022/10/22 09:07:09;;;;;;;5.35;2.25;;;;;;;14.93;nan;94039.38;4936312;29;20051;-60
2022/10/22 09:09:45;;;;;;;4.30;2.38;;;;;;;17.19;nan;94033.69;4943854;28;20134;-62
2022/10/22 09:12:16;;;;;;;4.82;2.17;;;;;;;18.54;nan;94032.06;4939329;28;20039;-60
2022/10/22 09:14:45;;;;;;;3.20;1.67;;;;;;;20.41;nan;94036.44;4936333;29;20050;-61
2022/10/22 09:17:18;;;;;;;3.15;1.65;;;;;;;20.93;nan;94042.50;4935488;29;20044;-61
2022/10/22 09:20:05;;;;;;;3.08;1.70;;;;;;;21.22;nan;94040.94;4935968;29;20048;-63
2022/10/22 09:23:09;;;;;;;4.38;1.40;;;;;;;21.96;nan;94031.69;4935497;29;20066;-62
2022/10/22 09:25:37;;;;;;;4.93;1.50;;;;;;;22.64;nan;94034.06;4935119;29;20485;-61
2022/10/22 09:28:04;;;;;;;3.93;1.57;;;;;;;23.17;nan;94043.28;4936125;29;20044;-61
2022/10/22 09:30:37;;;;;;;6.88;1.30;;;;;;;23.08;nan;94041.41;4935558;29;20082;-61
2022/10/22 09:33:06;;;;;;;4.60;1.50;;;;;;;21.87;nan;94040.94;4935123;29;20050;-64
2022/10/22 09:35:44;;;;;;;2.80;1.50;;;;;;;24.10;nan;94030.97;4935163;29;20044;-61
2022/10/22 09:38:14;;;;;;;4.07;2.30;;;;;;;22.13;nan;94041.84;4935575;29;20054;-61
2022/10/22 09:40:51;;;;;;;6.43;2.53;;;;;;;21.78;nan;94043.88;4934389;29;20717;-61
2022/10/22 09:43:19;;;;;;;5.20;1.90;;;;;;;22.11;nan;94035.97;4935067;29;20047;-61
2022/10/22 09:45:53;;;;;;;2.88;1.48;;;;;;;22.71;nan;94046.84;4935845;29;20044;-61
2022/10/22 09:48:27;;;;;;;3.67;1.38;;;;;;;22.33;nan;94034.72;4934515;29;20048;-61
2022/10/22 09:51:02;;;;;;;3.53;1.50;;;;;;;23.05;nan;94034.00;4935588;29;20050;-62
2022/10/22 09:53:30;;;;;;;3.20;1.30;;;;;;;22.99;nan;94035.94;4934452;29;20412;-61
2022/10/22 09:56:00;;;;;;;4.60;1.42;;;;;;;24.07;nan;94041.16;4935061;29;20039;-61
2022/10/22 09:58:27;;;;;;;3.15;1.20;;;;;;;25.04;nan;94031.09;4934887;29;20468;-61
2022/10/22 10:00:59;;;;;;;4.70;1.38;;;;;;;23.13;nan;94046.28;4936561;29;20054;-61
2022/10/22 10:03:31;;;;;;;4.53;1.25;;;;;;;24.47;nan;94039.31;4937832;29;20052;-60
2022/10/22 10:06:00;;;;;;;4.50;1.23;;;;;;;25.45;nan;94039.06;4935512;29;20047;-60
2022/10/22 10:08:30;;;;;;;3.78;1.27;;;;;;;23.76;nan;94041.19;4934930;29;20051;-62
2022/10/22 10:11:22;;;;;;;3.20;1.30;;;;;;;24.36;nan;94044.09;4947304;28;20453;-62
2022/10/22 10:14:18;;;;;;;3.42;1.17;;;;;;;23.92;nan;94048.97;4934170;29;21490;-61
2022/10/22 10:17:15;;;;;;;2.92;1.33;;;;;;;24.40;nan;94048.19;4933978;29;20618;-61
2022/10/22 10:20:05;;;;;;;4.20;1.17;;;;;;;25.67;nan;94047.47;4921871;29;20677;-60
2022/10/22 10:22:46;;;;;;;6.40;1.30;;;;;;;26.43;nan;94044.81;4934175;29;20134;-60
2022/10/22 10:25:40;;;;;;;4.03;1.40;;;;;;;24.77;nan;94047.38;4934552;29;20044;-62
2022/10/22 10:28:31;;;;;;;5.05;1.40;;;;;;;25.48;nan;94049.28;4935075;29;20048;-63
2022/10/22 10:31:03;;;;;;;5.10;1.30;;;;;;;24.00;nan;94058.44;4933756;29;20869;-61
2022/10/22 10:33:42;;;;;;;4.50;1.30;;;;;;;22.79;nan;94061.94;4933630;29;20504;-63
2022/10/22 10:36:25;;;;;;;3.35;1.40;;;;;;;22.16;nan;94056.09;4934697;29;20040;-63
2022/10/22 10:39:41;;;;;;;2.78;1.42;;;;;;;21.69;nan;94062.28;4933945;29;20280;-62
2022/10/22 10:42:21;;;;;;;3.72;1.55;;;;;;;22.66;nan;94055.97;4884436;29;20052;-61
2022/10/22 10:44:57;;;;;;;4.60;1.40;;;;;;;23.00;nan;94057.09;4933823;29;20132;-61
2022/10/22 10:47:39;;;;;;;3.07;1.20;;;;;;;23.68;nan;94052.88;4945813;28;20043;-62
2022/10/22 10:50:24;;;;;;;7.32;1.30;;;;;;;24.49;nan;94048.00;4918808;29;20074;-61
2022/10/22 10:53:13;;;;;;;3.13;1.70;;;;;;;26.96;nan;94047.66;4933165;29;20055;-64
2022/10/22 10:55:45;;;;;;;2.88;1.20;;;;;;;26.25;nan;94055.34;4933216;29;20452;-63
2022/10/22 10:58:29;;;;;;;3.50;1.27;;;;;;;28.51;nan;94059.50;4933796;29;20047;-62
2022/10/22 11:01:04;;;;;;;4.03;1.53;;;;;;;29.37;nan;94054.31;4934241;29;20063;-64
2022/10/22 11:03:33;;;;;;;2.97;1.30;;;;;;;26.07;nan;94051.03;4933508;29;20047;-62
2022/10/22 11:06:08;;;;;;;3.80;1.60;;;;;;;24.71;nan;94061.38;4934348;29;20046;-62
2022/10/22 11:08:40;;;;;;;4.90;1.30;;;;;;;25.06;nan;94065.03;4933656;29;20052;-61
2022/10/22 11:11:31;;;;;;;2.50;1.17;;;;;;;26.29;nan;94053.03;4921296;29;20054;-61
2022/10/22 11:14:21;;;;;;;4.17;1.50;;;;;;;23.35;nan;94061.75;4933091;29;20400;-62
2022/10/22 11:17:14;;;;;;;3.90;1.80;;;;;;;24.16;nan;94059.81;4933025;29;20355;-62
2022/10/22 11:19:55;;;;;;;3.95;1.40;;;;;;;27.18;nan;94055.97;4920561;29;20845;-62
2022/10/22 11:22:29;;;;;;;4.22;1.30;;;;;;;26.56;nan;94056.28;4933069;29;20061;-63
2022/10/22 11:25:05;;;;;;;3.38;1.40;;;;;;;29.05;nan;94050.09;4933741;29;20043;-63
2022/10/22 11:27:50;;;;;;;4.20;1.30;;;;;;;26.70;nan;94049.59;4933065;29;20047;-62
2022/10/22 11:30:20;;;;;;;3.42;1.50;;;;;;;26.52;nan;94052.94;4933469;29;20107;-62
2022/10/22 11:32:51;;;;;;;4.07;1.42;;;;;;;27.63;nan;94044.44;4933559;29;20512;-62
2022/10/22 11:35:25;;;;;;;5.35;1.30;;;;;;;27.23;nan;94041.13;4932730;29;20062;-61
2022/10/22 11:37:55;;;;;;;3.75;1.58;;;;;;;26.23;nan;94043.09;4933749;29;20513;-61
2022/10/22 11:40:34;;;;;;;3.40;1.20;;;;;;;25.24;nan;94035.72;4933420;29;20501;-64
2022/10/22 11:43:06;;;;;;;3.78;1.13;;;;;;;24.58;nan;94038.59;4945481;28;20054;-62
2022/10/22 11:45:40;;;;;;;4.93;1.50;;;;;;;21.43;nan;94047.41;4940578;28;20043;-62
2022/10/22 11:48:15;;;;;;;4.35;1.45;;;;;;;22.28;nan;94041.78;4933081;29;20047;-61
2022/10/22 11:50:56;;;;;;;3.83;1.30;;;;;;;21.70;nan;94047.06;4932383;29;20691;-62
2022/10/22 11:53:37;;;;;;;4.80;1.40;;;;;;;21.60;nan;94045.66;4919670;29;20057;-61
2022/10/22 11:56:09;;;;;;;3.65;1.40;;;;;;;21.23;nan;94054.44;4933166;29;20044;-61
2022/10/22 11:58:37;;;;;;;3.60;1.40;;;;;;;21.14;nan;94046.91;4932928;29;20048;-61
2022/10/22 12:01:07;;;;;;;3.38;1.50;;;;;;;20.23;nan;94054.81;4916374;29;20058;-61
2022/10/22 12:03:36;;;;;;;4.10;1.58;;;;;;;20.04;nan;94050.59;4919247;29;20048;-61
2022/10/22 12:06:13;;;;;;;4.77;1.43;;;;;;;20.47;nan;94037.31;4946919;28;20089;-63
2022/10/22 12:09:02;;;;;;;3.95;1.55;;;;;;;20.12;nan;94038.66;4944361;28;20800;-63
2022/10/22 12:11:46;;;;;;;3.97;1.42;;;;;;;20.49;nan;94046.72;4942080;28;20044;-63